Time;durP1;ratioP1;P1;durP2;ratioP2;P2;SDS_P1;SDS_P2;PMS_P1;PMS_P2;Temp;Humidity;BMP_temperature;BMP_pressure;BME280_temperature;BME280_humidity;BME280_pressure;Samples;Min_cycle;Max_cycle;Signal;HPM_P1;HPM_P2
2022/08/12 00:43:43;;;;;;;10.90;9.25;;;;;;;;;;5053653;28;20028;-70
2022/08/12 00:48:53;;;;;;;12.50;9.90;;;;;;;;;;5053323;28;20025;-70
2022/08/12 00:51:20;;;;;;;12.77;10.10;;;;;;;;;;5053463;28;20066;-70
2022/08/12 00:53:46;;;;;;;11.68;10.25;;;;;;;;;;5053306;28;20029;-70
2022/08/12 00:56:12;;;;;;;15.02;11.18;;;;;;;;;;5053024;28;20518;-69
2022/08/12 00:58:45;;;;;;;14.85;10.68;;;;;;;;;;5053085;28;20029;-70
2022/08/12 01:01:15;;;;;;;11.45;10.20;;;;;;;;;;5053325;28;20111;-69
2022/08/12 01:12:04;;;;;;;13.02;9.98;;;;;;;;;;5052996;28;20033;-70
2022/08/12 01:14:30;;;;;;;11.48;9.52;;;;;;;;;;5052899;28;20040;-70
2022/08/12 01:16:58;;;;;;;12.18;9.57;;;;;;;;;;5029337;28;20439;-70
2022/08/12 01:19:24;;;;;;;11.70;10.48;;;;;;;;;;5033116;28;20030;-70
2022/08/12 01:22:24;;;;;;;12.60;11.40;;;;;;;;;;5048421;28;20044;-70
2022/08/12 01:25:02;;;;;;;10.30;9.07;;;;;;;;;;5052941;28;20424;-70
2022/08/12 01:27:32;;;;;;;13.45;10.98;;;;;;;;;;5053105;28;20038;-70
2022/08/12 01:30:00;;;;;;;11.95;10.02;;;;;;;;;;5053023;28;20029;-69
2022/08/12 01:32:27;;;;;;;12.75;11.05;;;;;;;;;;5053239;28;20368;-69
2022/08/12 01:35:00;;;;;;;13.35;10.73;;;;;;;;;;5052375;28;20094;-69
2022/08/12 01:37:29;;;;;;;13.38;9.88;;;;;;;;;;5052783;28;20125;-69
2022/08/12 01:39:59;;;;;;;10.13;8.63;;;;;;;;;;5052505;28;20044;-69
2022/08/12 01:42:29;;;;;;;10.48;9.05;;;;;;;;;;5052784;28;20036;-70
2022/08/12 01:44:56;;;;;;;11.30;8.50;;;;;;;;;;5052474;28;20029;-70
2022/08/12 01:47:48;;;;;;;11.70;9.13;;;;;;;;;;5052921;28;20459;-70
2022/08/12 01:50:53;;;;;;;11.35;9.63;;;;;;;;;;5052540;28;20108;-70
2022/08/12 01:53:23;;;;;;;9.32;8.32;;;;;;;;;;5031912;28;20037;-70
2022/08/12 01:55:50;;;;;;;11.00;9.60;;;;;;;;;;5032319;28;20021;-70
2022/08/12 02:01:26;;;;;;;10.73;9.63;;;;;;;;;;5032727;28;20037;-70
2022/08/12 02:13:42;;;;;;;13.15;9.63;;;;;;;;;;5032338;28;20048;-70
2022/08/12 02:16:31;;;;;;;13.88;8.68;;;;;;;;;;5014445;28;20072;-70
2022/08/12 02:19:20;;;;;;;14.50;9.70;;;;;;;;;;5031866;28;20059;-70
2022/08/12 02:21:57;;;;;;;12.07;8.93;;;;;;;;;;5031971;28;20065;-70
2022/08/12 02:24:25;;;;;;;9.50;8.50;;;;;;;;;;5031711;28;20048;-70
2022/08/12 02:26:54;;;;;;;10.80;9.70;;;;;;;;;;5031893;28;20044;-70
2022/08/12 02:29:20;;;;;;;11.38;8.90;;;;;;;;;;5031729;28;20038;-70
2022/08/12 02:31:48;;;;;;;11.45;9.40;;;;;;;;;;5031805;28;20446;-71
2022/08/12 02:34:16;;;;;;;12.15;10.13;;;;;;;;;;5030486;28;20417;-70
2022/08/12 02:36:43;;;;;;;13.70;10.00;;;;;;;;;;5031284;28;20033;-70
2022/08/12 02:39:17;;;;;;;11.68;9.85;;;;;;;;;;5032243;28;20480;-70
2022/08/12 02:41:45;;;;;;;;;;;;;;;;;;5032416;28;20488;-70
2022/08/12 02:44:14;;;;;;;11.23;9.45;;;;;;;;;;5031848;28;20000;-70
2022/08/12 02:46:49;;;;;;;14.73;8.77;;;;;;;;;;5032098;28;20068;-70
2022/08/12 02:49:22;;;;;;;15.82;10.38;;;;;;;;;;5043585;28;20033;-70
2022/08/12 02:51:49;;;;;;;12.15;8.60;;;;;;;;;;5051359;28;20112;-70
2022/08/12 02:54:15;;;;;;;9.82;8.77;;;;;;;;;;5051590;28;20060;-70
2022/08/12 02:56:41;;;;;;;10.43;8.82;;;;;;;;;;5051367;28;20037;-70
2022/08/12 02:59:10;;;;;;;10.25;9.25;;;;;;;;;;5051487;28;20541;-70
2022/08/12 03:01:45;;;;;;;14.13;9.20;;;;;;;;;;5051460;28;20044;-70
2022/08/12 03:04:18;;;;;;;16.40;10.35;;;;;;;;;;5051305;28;20057;-70
2022/08/12 03:06:52;;;;;;;22.52;10.98;;;;;;;;;;5050921;28;20547;-70
2022/08/12 03:09:18;;;;;;;14.57;11.00;;;;;;;;;;5051150;28;20033;-71
2022/08/12 03:11:53;;;;;;;13.52;10.80;;;;;;;;;;5051419;28;20123;-70
2022/08/12 03:14:24;;;;;;;16.25;10.85;;;;;;;;;;5051534;28;20115;-70
2022/08/12 03:17:08;;;;;;;15.60;10.82;;;;;;;;;;5051235;28;20045;-70
2022/08/12 03:19:38;;;;;;;12.55;9.27;;;;;;;;;;5051165;28;20124;-70
2022/08/12 03:22:13;;;;;;;10.88;9.20;;;;;;;;;;5051076;28;20045;-71
2022/08/12 03:24:43;;;;;;;11.27;10.00;;;;;;;;;;5051059;28;20044;-71
2022/08/12 03:27:12;;;;;;;17.77;10.25;;;;;;;;;;5050792;28;20068;-70
2022/08/12 03:29:46;;;;;;;10.43;9.10;;;;;;;;;;5051214;28;20402;-71
2022/08/12 03:32:14;;;;;;;12.15;9.60;;;;;;;;;;5051236;28;20464;-70
2022/08/12 03:34:41;;;;;;;14.70;9.75;;;;;;;;;;5050953;28;20497;-70
2022/08/12 03:37:09;;;;;;;13.85;11.10;;;;;;;;;;5050502;28;20037;-71
2022/08/12 03:42:09;;;;;;;13.15;10.80;;;;;;;;;;5051182;28;20044;-71
2022/08/12 04:01:27;;;;;;;18.38;11.02;;;;;;;;;;5055207;28;20026;-71
2022/08/12 04:03:53;;;;;;;12.30;10.88;;;;;;;;;;5055253;28;20041;-71
2022/08/12 04:06:22;;;;;;;11.25;10.10;;;;;;;;;;5055314;28;20383;-71
2022/08/12 04:08:50;;;;;;;16.30;10.63;;;;;;;;;;5055273;28;20503;-71
2022/08/12 04:14:19;;;;;;;14.23;10.23;;;;;;;;;;5055044;28;20029;-71
2022/08/12 04:16:50;;;;;;;13.68;9.65;;;;;;;;;;5055228;28;20047;-74
2022/08/12 04:19:17;;;;;;;14.75;9.40;;;;;;;;;;5055277;28;20033;-73
2022/08/12 04:21:44;;;;;;;16.35;10.30;;;;;;;;;;5055259;28;20029;-73
2022/08/12 04:24:11;;;;;;;9.98;8.98;;;;;;;;;;5054769;28;20083;-71
2022/08/12 04:26:41;;;;;;;13.75;9.02;;;;;;;;;;5054801;28;20461;-70
2022/08/12 04:29:09;;;;;;;11.20;9.07;;;;;;;;;;5054809;28;20044;-72
2022/08/12 04:31:38;;;;;;;10.88;8.88;;;;;;;;;;5054448;28;20448;-72
2022/08/12 04:34:06;;;;;;;11.35;8.63;;;;;;;;;;5054060;28;20053;-72
2022/08/12 04:36:33;;;;;;;16.65;8.77;;;;;;;;;;5040590;28;20125;-71
2022/08/12 04:39:00;;;;;;;14.48;9.25;;;;;;;;;;5034665;28;20029;-71
2022/08/12 04:41:26;;;;;;;12.55;8.43;;;;;;;;;;5034589;28;20033;-71
2022/08/12 04:43:53;;;;;;;11.23;8.77;;;;;;;;;;5046439;28;20578;-73
2022/08/12 04:46:20;;;;;;;13.63;9.00;;;;;;;;;;5054282;28;20032;-72
2022/08/12 04:48:46;;;;;;;14.15;8.90;;;;;;;;;;5054333;28;20041;-72
2022/08/12 04:51:13;;;;;;;10.02;8.93;;;;;;;;;;5043428;28;20033;-71
2022/08/12 04:53:40;;;;;;;10.07;8.48;;;;;;;;;;5034745;28;20476;-70
2022/08/12 04:56:07;;;;;;;12.68;9.13;;;;;;;;;;5034445;28;20200;-70
2022/08/12 04:58:33;;;;;;;14.10;9.73;;;;;;;;;;5033916;28;20412;-74
2022/08/12 05:01:02;;;;;;;16.60;10.73;;;;;;;;;;5034631;28;20040;-69
2022/08/12 05:03:29;;;;;;;11.68;9.20;;;;;;;;;;5041911;28;20083;-70
2022/08/12 05:05:58;;;;;;;11.75;8.90;;;;;;;;;;5053581;28;20029;-69
2022/08/12 05:08:25;;;;;;;10.57;9.43;;;;;;;;;;5053440;28;20519;-69
2022/08/12 05:10:52;;;;;;;11.18;9.40;;;;;;;;;;5054091;28;20400;-69
2022/08/12 05:13:20;;;;;;;12.32;9.80;;;;;;;;;;5052999;28;20107;-70
2022/08/12 05:15:46;;;;;;;9.98;8.98;;;;;;;;;;5053348;28;20055;-70
2022/08/12 05:18:13;;;;;;;11.48;9.38;;;;;;;;;;5053590;28;20086;-70
2022/08/12 05:20:42;;;;;;;11.63;9.30;;;;;;;;;;5053633;28;20029;-69
2022/08/12 05:23:12;;;;;;;11.18;9.50;;;;;;;;;;5053626;28;20029;-69
2022/08/12 05:25:38;;;;;;;10.13;9.07;;;;;;;;;;5053155;28;20436;-69
2022/08/12 05:28:04;;;;;;;10.73;8.75;;;;;;;;;;5053392;28;20392;-69
2022/08/12 05:30:32;;;;;;;10.75;8.98;;;;;;;;;;5052816;28;20044;-69
2022/08/12 05:32:58;;;;;;;10.23;9.02;;;;;;;;;;5052860;28;20146;-69
2022/08/12 05:35:24;;;;;;;11.88;9.05;;;;;;;;;;5052859;28;20079;-69
2022/08/12 05:40:35;;;;;;;9.77;8.20;;;;;;;;;;5033278;28;20387;-69
2022/08/12 05:43:01;;;;;;;11.07;8.10;;;;;;;;;;5033018;28;20345;-69
2022/08/12 05:45:27;;;;;;;11.70;7.70;;;;;;;;;;5032938;28;20034;-70
2022/08/12 05:47:53;;;;;;;12.23;7.35;;;;;;;;;;5033198;28;20041;-69
2022/08/12 05:50:19;;;;;;;8.23;6.32;;;;;;;;;;5038222;28;20373;-69
2022/08/12 05:52:45;;;;;;;9.38;5.80;;;;;;;;;;5052424;28;20107;-69
2022/08/12 05:55:11;;;;;;;9.40;5.65;;;;;;;;;;5052661;28;20033;-69
2022/08/12 05:57:37;;;;;;;8.88;5.50;;;;;;;;;;5052883;28;20037;-69
2022/08/12 06:00:05;;;;;;;10.40;5.57;;;;;;;;;;5052097;28;20104;-70
2022/08/12 06:02:37;;;;;;;6.28;4.85;;;;;;;;;;5033500;28;20056;-70
2022/08/12 06:05:05;;;;;;;9.80;5.35;;;;;;;;;;5032364;28;20033;-74
2022/08/12 06:07:33;;;;;;;7.10;3.75;;;;;;;;;;5051822;28;20025;-72
2022/08/12 06:09:59;;;;;;;9.52;4.20;;;;;;;;;;5052657;28;20084;-77
2022/08/12 06:12:25;;;;;;;9.52;4.32;;;;;;;;;;5034633;28;20033;-71
2022/08/12 06:14:53;;;;;;;11.77;4.93;;;;;;;;;;5052671;28;20033;-73
2022/08/12 06:17:20;;;;;;;8.05;4.57;;;;;;;;;;5033117;28;20096;-77
2022/08/12 06:19:47;;;;;;;6.15;3.50;;;;;;;;;;5032670;28;20493;-72
2022/08/12 06:22:14;;;;;;;5.68;3.17;;;;;;;;;;5032593;28;20032;-73
2022/08/12 06:24:40;;;;;;;10.63;3.97;;;;;;;;;;5032064;28;20036;-74
2022/08/12 06:27:06;;;;;;;5.15;3.17;;;;;;;;;;5032035;28;20030;-73
2022/08/12 06:29:34;;;;;;;7.90;3.50;;;;;;;;;;5046681;28;20037;-74
2022/08/12 06:32:00;;;;;;;10.32;3.20;;;;;;;;;;5052269;28;20326;-76
2022/08/12 06:34:30;;;;;;;5.38;2.95;;;;;;;;;;5051745;28;20094;-75
2022/08/12 06:36:56;;;;;;;7.75;2.67;;;;;;;;;;5052209;28;20476;-75
2022/08/12 06:39:22;;;;;;;4.55;2.60;;;;;;;;;;5051904;28;20384;-74
2022/08/12 06:44:33;;;;;;;6.68;3.55;;;;;;;;;;5052124;28;20033;-75
2022/08/12 06:46:59;;;;;;;5.45;3.70;;;;;;;;;;5037115;28;20361;-75
2022/08/12 06:49:27;;;;;;;4.93;3.13;;;;;;;;;;5031992;28;20026;-76
2022/08/12 06:51:54;;;;;;;5.05;3.22;;;;;;;;;;5032149;28;20033;-75
2022/08/12 06:54:20;;;;;;;3.58;3.00;;;;;;;;;;5041564;28;20061;-78
2022/08/12 06:56:46;;;;;;;5.32;3.40;;;;;;;;;;5051622;28;20033;-74
2022/08/12 06:59:15;;;;;;;5.85;3.40;;;;;;;;;;5051939;28;20029;-75
2022/08/12 07:01:41;;;;;;;4.80;3.80;;;;;;;;;;5052065;28;20539;-75
2022/08/12 07:04:07;;;;;;;4.30;3.20;;;;;;;;;;5051672;28;20108;-80
2022/08/12 07:06:33;;;;;;;5.55;3.92;;;;;;;;;;5051257;28;20545;-76
2022/08/12 07:08:58;;;;;;;7.15;3.88;;;;;;;;;;5051664;28;20033;-77
2022/08/12 07:11:26;;;;;;;7.32;4.40;;;;;;;;;;5051485;28;20491;-77
2022/08/12 07:13:52;;;;;;;12.15;4.90;;;;;;;;;;5051323;28;20037;-78
2022/08/12 07:16:23;;;;;;;7.95;5.32;;;;;;;;;;5051533;28;20420;-76
2022/08/12 07:18:53;;;;;;;7.15;4.10;;;;;;;;;;5040849;28;20116;-75
2022/08/12 07:21:19;;;;;;;9.45;5.10;;;;;;;;;;5045612;28;20059;-75
2022/08/12 07:23:45;;;;;;;6.55;3.78;;;;;;;;;;5052856;28;20029;-75
2022/08/12 07:26:15;;;;;;;6.38;4.30;;;;;;;;;;5054805;28;20041;-76
2022/08/12 07:28:43;;;;;;;6.10;4.28;;;;;;;;;;5054964;28;20044;-76
2022/08/12 07:31:11;;;;;;;7.35;4.25;;;;;;;;;;5053999;28;20036;-75
2022/08/12 07:33:39;;;;;;;7.57;4.35;;;;;;;;;;5035838;28;20388;-75
2022/08/12 07:36:09;;;;;;;4.55;3.63;;;;;;;;;;5036778;28;20040;-77
2022/08/12 07:38:46;;;;;;;8.95;4.43;;;;;;;;;;5036297;28;20033;-74
2022/08/12 07:41:22;;;;;;;6.10;4.70;;;;;;;;;;5048861;28;20029;-75
2022/08/12 07:43:53;;;;;;;8.63;4.88;;;;;;;;;;5053388;28;20640;-74
2022/08/12 07:46:22;;;;;;;5.57;4.30;;;;;;;;;;5038114;28;20040;-76
2022/08/12 07:48:51;;;;;;;5.65;3.95;;;;;;;;;;5054273;28;20033;-77
2022/08/12 07:51:19;;;;;;;10.07;5.43;;;;;;;;;;5036705;28;20057;-75
2022/08/12 07:53:45;;;;;;;7.47;4.88;;;;;;;;;;5037779;28;20032;-77
2022/08/12 07:56:11;;;;;;;6.88;5.00;;;;;;;;;;5049149;28;20025;-77
2022/08/12 07:58:39;;;;;;;6.47;4.60;;;;;;;;;;5048907;28;20041;-76
2022/08/12 08:01:14;;;;;;;6.35;5.10;;;;;;;;;;5047678;28;20436;-75
2022/08/12 08:06:30;;;;;;;5.38;3.90;;;;;;;;;;5037591;28;20130;-75
2022/08/12 08:09:01;;;;;;;5.45;4.70;;;;;;;;;;5038204;28;20044;-74
2022/08/12 08:14:12;;;;;;;6.60;4.90;;;;;;;;;;5044838;28;20400;-76
2022/08/12 08:16:39;;;;;;;5.88;4.05;;;;;;;;;;5043308;28;20032;-74
2022/08/12 08:19:07;;;;;;;5.25;3.90;;;;;;;;;;5034162;28;20022;-74
2022/08/12 08:21:34;;;;;;;5.65;4.30;;;;;;;;;;5033558;28;20084;-75
2022/08/12 08:24:16;;;;;;;7.68;4.28;;;;;;;;;;5050624;28;20044;-75
2022/08/12 08:26:46;;;;;;;9.57;4.03;;;;;;;;;;5046348;28;20037;-74
2022/08/12 08:29:14;;;;;;;18.75;5.90;;;;;;;;;;5033413;28;20025;-77
2022/08/12 08:31:42;;;;;;;19.95;5.65;;;;;;;;;;5039715;28;20395;-74
2022/08/12 08:34:09;;;;;;;15.18;5.13;;;;;;;;;;5052823;28;20380;-73
2022/08/12 08:36:38;;;;;;;9.48;5.30;;;;;;;;;;5052231;28;20025;-75
2022/08/12 08:39:05;;;;;;;12.20;5.60;;;;;;;;;;5052944;28;20033;-81
2022/08/12 08:44:16;;;;;;;10.18;5.20;;;;;;;;;;5052605;28;20441;-77
2022/08/12 08:46:43;;;;;;;17.75;6.65;;;;;;;;;;5050764;28;20090;-77
2022/08/12 08:49:10;;;;;;;12.25;6.13;;;;;;;;;;5047391;28;20029;-81
2022/08/12 08:51:37;;;;;;;12.05;5.32;;;;;;;;;;5043035;28;20043;-74
2022/08/12 08:54:11;;;;;;;9.32;5.57;;;;;;;;;;5033337;28;20017;-76
2022/08/12 08:56:42;;;;;;;6.43;5.18;;;;;;;;;;5051161;28;20033;-74
2022/08/12 08:59:10;;;;;;;6.03;5.18;;;;;;;;;;5052701;28;20059;-76
2022/08/12 09:01:37;;;;;;;11.20;5.55;;;;;;;;;;5052590;28;20040;-77
2022/08/12 09:04:03;;;;;;;7.03;5.20;;;;;;;;;;5051346;28;20539;-76
2022/08/12 09:06:30;;;;;;;7.93;4.95;;;;;;;;;;5052588;28;20037;-76
2022/08/12 09:08:56;;;;;;;6.75;4.45;;;;;;;;;;5053440;28;20036;-77
2022/08/12 09:14:08;;;;;;;7.35;5.35;;;;;;;;;;5035300;28;20029;-78
2022/08/12 09:16:38;;;;;;;6.75;4.68;;;;;;;;;;5030686;28;20033;-75
2022/08/12 09:19:06;;;;;;;7.38;5.28;;;;;;;;;;5032464;28;20112;-77
2022/08/12 09:21:32;;;;;;;10.07;5.90;;;;;;;;;;5050484;28;20025;-75
2022/08/12 09:24:00;;;;;;;8.45;5.22;;;;;;;;;;5044153;28;20518;-77
2022/08/12 09:26:27;;;;;;;6.20;5.00;;;;;;;;;;5038462;28;20040;-77
2022/08/12 09:28:53;;;;;;;7.78;5.25;;;;;;;;;;5052130;28;20488;-77
2022/08/12 09:31:20;;;;;;;8.48;4.95;;;;;;;;;;5048318;28;20036;-78
2022/08/12 09:33:47;;;;;;;7.53;5.07;;;;;;;;;;5060682;28;20079;-77
2022/08/12 09:36:13;;;;;;;6.97;5.50;;;;;;;;;;5038729;28;20129;-77
2022/08/12 09:38:42;;;;;;;5.85;5.22;;;;;;;;;;5032189;28;20494;-74
2022/08/12 09:41:08;;;;;;;5.55;4.85;;;;;;;;;;5032716;28;20033;-75
2022/08/12 09:46:19;;;;;;;12.98;5.70;;;;;;;;;;5031777;28;20037;-79
2022/08/12 09:48:45;;;;;;;13.23;5.57;;;;;;;;;;5031669;28;20030;-76
2022/08/12 09:51:11;;;;;;;8.25;4.85;;;;;;;;;;5032440;28;20029;-72
2022/08/12 09:53:38;;;;;;;9.93;5.72;;;;;;;;;;5032689;28;20033;-73
2022/08/12 09:56:16;;;;;;;6.25;4.80;;;;;;;;;;5032621;28;20036;-76
2022/08/12 09:58:45;;;;;;;8.35;4.85;;;;;;;;;;5032753;28;20046;-73
2022/08/12 10:01:11;;;;;;;6.57;5.20;;;;;;;;;;5031492;28;20112;-74
2022/08/12 10:03:42;;;;;;;7.45;5.18;;;;;;;;;;5032245;28;20112;-75
2022/08/12 10:06:09;;;;;;;6.28;4.72;;;;;;;;;;5052317;28;20032;-74
2022/08/12 10:08:37;;;;;;;7.63;5.22;;;;;;;;;;5052175;28;20032;-75
2022/08/12 10:13:52;;;;;;;6.50;4.93;;;;;;;;;;5052129;28;20111;-75
2022/08/12 10:16:33;;;;;;;8.63;4.43;;;;;;;;;;5051726;28;20128;-76
2022/08/12 10:19:02;;;;;;;6.22;4.22;;;;;;;;;;5052070;28;20059;-76
2022/08/12 10:21:35;;;;;;;7.20;4.30;;;;;;;;;;5034482;28;20045;-76
2022/08/12 10:24:03;;;;;;;5.30;4.32;;;;;;;;;;5051994;28;20068;-75
2022/08/12 10:32:02;;;;;;;5.38;3.85;;;;;;;;;;5052312;28;20040;-76
2022/08/12 10:34:28;;;;;;;7.50;4.07;;;;;;;;;;5051992;28;20435;-74
2022/08/12 10:36:59;;;;;;;5.47;3.83;;;;;;;;;;5051974;28;20125;-78
2022/08/12 10:39:32;;;;;;;5.65;3.45;;;;;;;;;;5051866;28;20591;-74
2022/08/12 10:44:45;;;;;;;4.80;3.97;;;;;;;;;;5034181;28;20043;-73
2022/08/12 10:47:11;;;;;;;5.90;3.83;;;;;;;;;;5052164;28;20033;-73
2022/08/12 10:49:38;;;;;;;5.75;4.10;;;;;;;;;;5052328;28;20040;-76
2022/08/12 10:52:05;;;;;;;4.28;3.85;;;;;;;;;;5052253;28;20086;-78
2022/08/12 10:54:33;;;;;;;6.55;3.72;;;;;;;;;;5047761;28;20133;-80
2022/08/12 10:56:59;;;;;;;5.68;4.30;;;;;;;;;;5050077;28;20040;-80
2022/08/12 10:59:29;;;;;;;7.35;4.40;;;;;;;;;;5033541;28;20044;-76
2022/08/12 11:01:57;;;;;;;5.15;4.28;;;;;;;;;;5051814;28;20029;-81
2022/08/12 11:04:24;;;;;;;5.43;4.53;;;;;;;;;;5051335;28;20039;-79
2022/08/12 11:06:52;;;;;;;5.55;3.80;;;;;;;;;;5051288;28;20103;-76
2022/08/12 11:09:26;;;;;;;5.82;3.78;;;;;;;;;;5050333;28;20029;-82
2022/08/12 11:11:54;;;;;;;4.82;3.85;;;;;;;;;;5050276;28;20423;-79
2022/08/12 11:14:26;;;;;;;4.55;3.88;;;;;;;;;;5049307;28;20086;-80
2022/08/12 11:17:13;;;;;;;5.10;3.72;;;;;;;;;;5050217;28;20388;-78
2022/08/12 11:19:42;;;;;;;7.07;4.20;;;;;;;;;;5049899;28;20036;-78
2022/08/12 11:22:09;;;;;;;6.97;3.50;;;;;;;;;;5049618;28;20515;-79
2022/08/12 11:24:36;;;;;;;4.18;3.78;;;;;;;;;;5050893;28;20399;-79
2022/08/12 11:27:07;;;;;;;5.90;3.83;;;;;;;;;;5034314;28;20029;-79
2022/08/12 11:29:34;;;;;;;8.27;3.90;;;;;;;;;;5051665;28;20052;-76
2022/08/12 11:32:00;;;;;;;6.28;3.50;;;;;;;;;;5050926;28;20052;-81
2022/08/12 11:34:26;;;;;;;7.85;3.72;;;;;;;;;;5029521;28;20041;-76
2022/08/12 11:37:06;;;;;;;5.78;3.45;;;;;;;;;;5029499;28;20430;-76
2022/08/12 11:39:33;;;;;;;4.90;3.13;;;;;;;;;;5030625;28;20423;-78
2022/08/12 11:41:59;;;;;;;4.25;3.35;;;;;;;;;;5031569;28;20057;-74
2022/08/12 11:44:25;;;;;;;4.13;3.60;;;;;;;;;;5030441;28;20085;-80
2022/08/12 11:46:56;;;;;;;3.67;2.75;;;;;;;;;;5032072;28;20061;-77
2022/08/12 11:49:24;;;;;;;4.70;3.38;;;;;;;;;;5032146;28;20033;-79
2022/08/12 11:51:50;;;;;;;6.85;2.70;;;;;;;;;;5032242;28;20033;-75
2022/08/12 11:54:16;;;;;;;4.05;2.95;;;;;;;;;;5032139;28;20537;-78
2022/08/12 11:56:42;;;;;;;3.10;2.80;;;;;;;;;;5032109;28;20029;-79
2022/08/12 11:59:08;;;;;;;6.03;3.30;;;;;;;;;;5030869;28;20045;-78
2022/08/12 12:01:34;;;;;;;4.13;3.15;;;;;;;;;;5031947;28;20037;-79
2022/08/12 12:04:00;;;;;;;4.05;3.25;;;;;;;;;;5031980;28;20025;-78
2022/08/12 12:06:26;;;;;;;3.50;3.20;;;;;;;;;;5032798;28;20029;-77
2022/08/12 12:08:53;;;;;;;3.92;3.40;;;;;;;;;;5035231;28;20091;-77
2022/08/12 12:11:20;;;;;;;3.95;3.50;;;;;;;;;;5035303;28;20099;-79
2022/08/12 12:13:47;;;;;;;6.40;4.03;;;;;;;;;;5035277;28;20055;-79
2022/08/12 12:16:13;;;;;;;4.25;3.75;;;;;;;;;;5035269;28;20037;-80
2022/08/12 12:18:38;;;;;;;6.35;4.20;;;;;;;;;;5035320;28;20507;-81
2022/08/12 12:21:07;;;;;;;4.40;3.55;;;;;;;;;;5035376;28;20056;-78
2022/08/12 12:23:33;;;;;;;4.22;3.75;;;;;;;;;;5035377;28;20029;-77
2022/08/12 12:26:06;;;;;;;7.25;4.28;;;;;;;;;;5035113;28;20040;-78
2022/08/12 12:28:35;;;;;;;4.97;3.85;;;;;;;;;;5035067;28;20056;-78
2022/08/12 12:31:01;;;;;;;4.90;3.38;;;;;;;;;;5035069;28;20033;-78
2022/08/12 12:33:27;;;;;;;7.72;4.00;;;;;;;;;;5034924;28;20030;-76
2022/08/12 12:35:53;;;;;;;4.13;3.45;;;;;;;;;;5034902;28;20397;-77
2022/08/12 12:38:20;;;;;;;4.75;4.10;;;;;;;;;;5034865;28;20045;-77
2022/08/12 12:40:47;;;;;;;6.03;4.07;;;;;;;;;;5035088;28;20030;-79
2022/08/12 12:43:14;;;;;;;4.90;4.35;;;;;;;;;;5034974;28;20056;-78
2022/08/12 12:45:42;;;;;;;6.88;4.15;;;;;;;;;;5034823;28;20037;-79
2022/08/12 12:48:10;;;;;;;5.18;3.95;;;;;;;;;;5047035;28;20483;-77
2022/08/12 12:50:41;;;;;;;4.38;3.60;;;;;;;;;;5040734;28;20499;-79
2022/08/12 12:53:08;;;;;;;3.80;3.40;;;;;;;;;;5035982;28;20498;-80
2022/08/12 12:55:36;;;;;;;5.32;3.70;;;;;;;;;;5018446;28;20131;-80
2022/08/12 12:58:10;;;;;;;7.75;3.25;;;;;;;;;;5053931;28;20041;-79
2022/08/12 13:00:41;;;;;;;5.03;3.25;;;;;;;;;;5054578;28;20044;-82
2022/08/12 13:03:07;;;;;;;5.43;3.22;;;;;;;;;;5053924;28;20116;-85
2022/08/12 13:05:35;;;;;;;3.65;3.13;;;;;;;;;;5053955;28;20029;-80
2022/08/12 13:08:03;;;;;;;3.65;3.13;;;;;;;;;;5053303;28;20087;-82
2022/08/12 13:10:30;;;;;;;5.93;3.10;;;;;;;;;;5054119;28;20546;-77
2022/08/12 13:12:56;;;;;;;3.30;3.00;;;;;;;;;;5054108;28;20450;-80
2022/08/12 13:15:23;;;;;;;8.05;2.90;;;;;;;;;;5053497;28;20037;-79
2022/08/12 13:17:54;;;;;;;3.88;2.95;;;;;;;;;;5052860;28;20033;-79
2022/08/12 13:20:21;;;;;;;4.43;3.05;;;;;;;;;;5053329;28;20424;-80
2022/08/12 13:22:48;;;;;;;5.60;3.60;;;;;;;;;;5053681;28;20033;-78
2022/08/12 13:25:16;;;;;;;3.75;3.00;;;;;;;;;;5053427;28;20043;-79
2022/08/12 13:27:46;;;;;;;4.60;3.00;;;;;;;;;;5052085;28;20032;-79
2022/08/12 13:30:19;;;;;;;5.72;3.25;;;;;;;;;;5035660;28;20431;-79
2022/08/12 13:32:53;;;;;;;4.40;3.00;;;;;;;;;;5052735;28;20086;-78
2022/08/12 13:35:19;;;;;;;3.42;2.90;;;;;;;;;;5052762;28;20044;-77
2022/08/12 13:37:56;;;;;;;4.53;3.10;;;;;;;;;;5052486;28;20398;-79
2022/08/12 13:40:24;;;;;;;4.07;3.10;;;;;;;;;;5053770;28;20028;-78
2022/08/12 13:42:56;;;;;;;7.10;3.60;;;;;;;;;;5053676;28;20033;-79
2022/08/12 13:45:23;;;;;;;3.88;2.78;;;;;;;;;;5053605;28;20162;-77
2022/08/12 13:48:04;;;;;;;3.78;2.90;;;;;;;;;;5053838;28;20115;-77
2022/08/12 13:50:31;;;;;;;6.85;2.80;;;;;;;;;;5053942;28;20033;-76
2022/08/12 13:53:03;;;;;;;4.65;3.17;;;;;;;;;;5053664;28;20505;-77
2022/08/12 13:55:30;;;;;;;3.83;3.00;;;;;;;;;;5053524;28;20033;-77
2022/08/12 13:57:56;;;;;;;6.75;3.53;;;;;;;;;;5053609;28;20150;-79
2022/08/12 14:00:25;;;;;;;4.43;3.22;;;;;;;;;;5053435;28;20036;-76
2022/08/12 14:02:54;;;;;;;3.78;3.00;;;;;;;;;;5052942;28;20503;-79
2022/08/12 14:05:20;;;;;;;5.22;3.13;;;;;;;;;;5033283;28;20437;-75
2022/08/12 14:07:58;;;;;;;4.30;2.95;;;;;;;;;;5033333;28;20385;-77
2022/08/12 14:10:35;;;;;;;4.95;3.13;;;;;;;;;;5033182;28;20112;-73
2022/08/12 14:13:28;;;;;;;3.42;2.90;;;;;;;;;;5032981;28;20079;-75
2022/08/12 14:15:59;;;;;;;6.70;2.97;;;;;;;;;;5028030;28;20119;-74
2022/08/12 14:18:28;;;;;;;4.30;2.97;;;;;;;;;;5052762;28;20043;-74
2022/08/12 14:21:00;;;;;;;5.28;2.97;;;;;;;;;;5052840;28;20040;-77
2022/08/12 14:23:28;;;;;;;3.88;2.80;;;;;;;;;;5038344;28;20033;-74
2022/08/12 14:25:58;;;;;;;4.63;2.88;;;;;;;;;;5032593;28;20377;-75
2022/08/12 14:28:25;;;;;;;6.22;3.20;;;;;;;;;;5032579;28;20044;-76
2022/08/12 14:30:55;;;;;;;4.88;2.88;;;;;;;;;;5031304;28;20041;-75
2022/08/12 14:33:32;;;;;;;4.57;3.35;;;;;;;;;;5032282;28;20033;-74
2022/08/12 14:36:00;;;;;;;5.80;3.50;;;;;;;;;;5031047;28;20099;-75
2022/08/12 14:38:30;;;;;;;7.32;2.92;;;;;;;;;;5031882;28;20481;-72
2022/08/12 14:41:01;;;;;;;4.57;2.75;;;;;;;;;;5032409;28;20038;-73
2022/08/12 14:43:33;;;;;;;5.50;2.85;;;;;;;;;;5014643;28;20049;-73
2022/08/12 14:46:21;;;;;;;4.57;2.75;;;;;;;;;;5032232;28;20038;-72
2022/08/12 14:48:49;;;;;;;4.25;2.97;;;;;;;;;;5031585;28;20538;-73
2022/08/12 14:51:18;;;;;;;6.07;2.97;;;;;;;;;;5032043;28;20033;-73
2022/08/12 14:53:45;;;;;;;3.95;2.60;;;;;;;;;;5032096;28;20025;-72
2022/08/12 14:56:14;;;;;;;5.38;2.80;;;;;;;;;;5031849;28;20034;-73
2022/08/12 15:01:44;;;;;;;4.75;2.53;;;;;;;;;;5044349;28;20448;-73
2022/08/12 15:04:12;;;;;;;3.28;2.70;;;;;;;;;;5052013;28;20040;-73
2022/08/12 15:06:40;;;;;;;8.30;2.83;;;;;;;;;;5052089;28;20056;-74
2022/08/12 15:09:08;;;;;;;3.28;2.50;;;;;;;;;;5052303;28;20120;-75
2022/08/12 15:11:34;;;;;;;3.10;2.58;;;;;;;;;;5051965;28;20346;-74
2022/08/12 15:14:01;;;;;;;7.22;2.92;;;;;;;;;;5051292;28;20032;-74
2022/08/12 15:16:27;;;;;;;4.10;2.53;;;;;;;;;;5051999;28;20033;-73
2022/08/12 15:18:53;;;;;;;7.80;3.00;;;;;;;;;;5036962;28;20034;-74
2022/08/12 15:21:19;;;;;;;5.82;2.67;;;;;;;;;;5031869;28;20388;-74
2022/08/12 15:23:45;;;;;;;4.15;3.00;;;;;;;;;;5031835;28;20087;-74
2022/08/12 15:26:12;;;;;;;4.13;2.95;;;;;;;;;;5038947;28;20105;-75
2022/08/12 15:28:41;;;;;;;5.20;2.90;;;;;;;;;;5051879;28;20576;-73
2022/08/12 15:31:12;;;;;;;3.85;2.58;;;;;;;;;;5051800;28;20033;-71
2022/08/12 15:33:41;;;;;;;4.47;2.70;;;;;;;;;;5051357;28;20033;-73
2022/08/12 15:36:11;;;;;;;3.55;2.50;;;;;;;;;;5051968;28;20383;-74
2022/08/12 15:38:37;;;;;;;4.97;2.80;;;;;;;;;;5051096;28;20052;-74
2022/08/12 15:41:05;;;;;;;4.10;2.75;;;;;;;;;;5034715;28;20368;-74
2022/08/12 15:43:35;;;;;;;3.33;2.65;;;;;;;;;;5055142;28;20090;-74
2022/08/12 15:46:03;;;;;;;4.13;2.80;;;;;;;;;;5055304;28;20033;-73
2022/08/12 15:48:31;;;;;;;6.80;3.25;;;;;;;;;;5055071;28;20036;-75
2022/08/12 15:50:59;;;;;;;3.50;2.70;;;;;;;;;;5054876;28;20040;-74
2022/08/12 15:56:10;;;;;;;4.00;2.90;;;;;;;;;;5037073;28;20029;-73
2022/08/12 15:58:40;;;;;;;3.17;2.65;;;;;;;;;;5055361;28;20120;-73
2022/08/12 16:01:13;;;;;;;5.53;3.00;;;;;;;;;;5055094;28;20037;-74
2022/08/12 16:03:45;;;;;;;3.97;2.70;;;;;;;;;;5054484;28;20094;-73
2022/08/12 16:06:11;;;;;;;6.88;3.00;;;;;;;;;;5054676;28;20033;-73
2022/08/12 16:08:40;;;;;;;5.25;3.08;;;;;;;;;;5054992;28;20119;-74
2022/08/12 16:11:08;;;;;;;5.68;3.20;;;;;;;;;;5054635;28;20550;-72
2022/08/12 16:13:34;;;;;;;4.15;2.70;;;;;;;;;;5054969;28;20025;-74
2022/08/12 16:16:02;;;;;;;4.10;2.65;;;;;;;;;;5054700;28;20120;-73
2022/08/12 16:18:32;;;;;;;4.88;3.10;;;;;;;;;;5054218;28;20376;-72
2022/08/12 16:20:58;;;;;;;5.43;2.90;;;;;;;;;;5054703;28;20476;-73
2022/08/12 16:23:25;;;;;;;5.13;3.15;;;;;;;;;;5054798;28;20426;-74
2022/08/12 16:25:51;;;;;;;6.85;2.80;;;;;;;;;;5054573;28;20079;-74
2022/08/12 16:28:17;;;;;;;7.40;3.20;;;;;;;;;;5036859;28;20037;-73
2022/08/12 16:30:43;;;;;;;4.40;3.10;;;;;;;;;;5054181;28;20029;-73
2022/08/12 16:33:15;;;;;;;4.63;2.88;;;;;;;;;;5054448;28;20033;-74
2022/08/12 16:35:45;;;;;;;4.68;2.80;;;;;;;;;;5054191;28;20037;-73
2022/08/12 16:38:14;;;;;;;4.97;2.90;;;;;;;;;;5054495;28;20044;-74
2022/08/12 16:40:43;;;;;;;3.75;2.95;;;;;;;;;;5054416;28;20493;-73
2022/08/12 16:43:28;;;;;;;3.33;3.03;;;;;;;;;;5053905;28;20028;-73
2022/08/12 16:45:58;;;;;;;4.22;3.15;;;;;;;;;;5054296;28;20037;-73
2022/08/12 16:48:25;;;;;;;3.63;3.00;;;;;;;;;;5051299;28;20129;-73
2022/08/12 16:50:56;;;;;;;7.10;3.10;;;;;;;;;;5049034;28;20078;-74
2022/08/12 16:53:24;;;;;;;4.18;2.92;;;;;;;;;;5049197;28;20037;-73